Time;durP1;ratioP1;P1;durP2;ratioP2;P2;SDS_P1;SDS_P2;PMS_P1;PMS_P2;Temp;Humidity;BMP_temperature;BMP_pressure;BME280_temperature;BME280_humidity;BME280_pressure;Samples;Min_cycle;Max_cycle;Signal;HPM_P1;HPM_P2
2024/04/17 00:02:23;;;;;;;2.30;2.20;;;;;;;11.98;59.79;97865.44;7375749;26;20243;-82
2024/04/17 00:05:44;;;;;;;2.27;2.03;;;;;;;11.91;60.03;97867.41;7375540;26;20712;-84
2024/04/17 00:09:07;;;;;;;2.97;2.20;;;;;;;11.61;59.95;97866.72;7374677;26;20277;-84
2024/04/17 00:12:28;;;;;;;2.20;2.10;;;;;;;11.69;60.19;97858.28;7375343;26;20242;-83
2024/04/17 00:15:53;;;;;;;1.90;1.80;;;;;;;11.37;60.46;97859.63;7375147;26;20233;-83
2024/04/17 00:19:16;;;;;;;1.93;1.83;;;;;;;11.68;59.54;97848.56;7373984;26;20268;-83
2024/04/17 00:22:37;;;;;;;2.10;2.00;;;;;;;11.27;60.28;97859.41;7375239;26;20293;-83
2024/04/17 00:26:00;;;;;;;3.00;2.00;;;;;;;11.78;59.29;97856.84;7375723;26;20217;-84
2024/04/17 00:29:23;;;;;;;1.80;1.70;;;;;;;11.33;59.52;97834.97;7374499;26;20222;-84
2024/04/17 00:32:46;;;;;;;1.57;1.47;;;;;;;11.67;58.26;97865.78;7374828;26;20239;-83
2024/04/17 00:36:10;;;;;;;1.70;1.60;;;;;;;11.36;59.34;97864.22;7376297;26;20309;-84
2024/04/17 00:39:33;;;;;;;1.90;1.80;;;;;;;11.45;59.37;97846.63;7374668;26;20706;-83
2024/04/17 00:42:53;;;;;;;1.57;1.50;;;;;;;11.54;58.79;97845.22;7375609;26;20713;-82
2024/04/17 00:46:17;;;;;;;1.70;1.60;;;;;;;11.03;59.94;97852.31;7374855;26;20281;-82
2024/04/17 00:49:43;;;;;;;1.53;1.53;;;;;;;11.69;58.42;97842.88;7378546;26;20219;-84
2024/04/17 00:53:06;;;;;;;1.63;1.50;;;;;;;11.55;58.46;97830.66;7381065;26;20221;-81
2024/04/17 00:56:30;;;;;;;1.97;1.80;;;;;;;11.30;58.92;97835.47;7379275;26;20246;-83
2024/04/17 00:59:53;;;;;;;1.70;1.60;;;;;;;11.57;58.91;97842.03;7379863;26;20241;-83
2024/04/17 01:03:16;;;;;;;2.03;1.93;;;;;;;11.18;59.43;97823.00;7381531;26;20225;-83
2024/04/17 01:06:42;;;;;;;2.13;2.03;;;;;;;11.45;59.53;97843.91;7380579;26;20226;-84
2024/04/17 01:10:06;;;;;;;2.00;1.90;;;;;;;11.55;58.82;97832.53;7378939;26;20234;-84
2024/04/17 01:13:29;;;;;;;2.10;1.90;;;;;;;11.79;58.75;97837.72;7381720;26;20264;-83
2024/04/17 01:16:52;;;;;;;2.13;2.00;;;;;;;11.61;58.85;97837.84;7355956;26;20283;-84
2024/04/17 01:20:13;;;;;;;2.07;1.97;;;;;;;11.70;58.87;97824.81;7352183;26;20292;-83
2024/04/17 01:23:38;;;;;;;3.10;2.37;;;;;;;11.94;58.23;97829.97;7386737;26;20227;-83
2024/04/17 01:27:04;;;;;;;2.13;2.03;;;;;;;11.74;59.09;97837.59;7380468;26;20226;-84
2024/04/17 01:30:28;;;;;;;2.30;2.20;;;;;;;11.88;59.58;97843.59;7379959;26;20289;-83
2024/04/17 01:33:51;;;;;;;2.27;2.13;;;;;;;11.69;59.92;97839.38;7380136;26;20286;-83
2024/04/17 01:37:14;;;;;;;3.33;2.83;;;;;;;11.68;60.33;97826.94;7379606;26;20595;-83
2024/04/17 01:40:37;;;;;;;2.73;2.50;;;;;;;11.63;60.18;97833.03;7380602;26;20235;-83
2024/04/17 01:44:03;;;;;;;7.10;2.80;;;;;;;11.71;59.92;97834.56;7380285;26;20234;-84
2024/04/17 01:47:23;;;;;;;2.90;2.60;;;;;;;11.81;59.82;97834.81;7380371;26;20269;-84
2024/04/17 01:50:46;;;;;;;2.50;2.30;;;;;;;11.72;59.83;97842.44;7380819;26;20241;-83
2024/04/17 01:54:10;;;;;;;2.47;2.30;;;;;;;11.89;59.06;97837.13;7380864;26;20223;-82
2024/04/17 01:57:30;;;;;;;2.30;2.20;;;;;;;11.52;59.44;97841.13;7380170;26;20216;-83
2024/04/17 02:00:56;;;;;;;2.20;2.10;;;;;;;11.07;60.88;97843.53;7396353;26;20364;-81
2024/04/17 02:04:18;;;;;;;2.50;2.40;;;;;;;11.33;59.83;97826.09;7378498;26;20223;-84
2024/04/17 02:07:41;;;;;;;2.30;2.10;;;;;;;11.28;60.12;97837.56;7377791;26;20222;-84
2024/04/17 02:11:05;;;;;;;2.93;2.70;;;;;;;11.70;60.19;97832.94;7378351;26;20285;-83
2024/04/17 02:14:28;;;;;;;2.57;2.37;;;;;;;11.40;60.25;97843.78;7377822;26;20280;-83
2024/04/17 02:17:51;;;;;;;2.53;2.40;;;;;;;11.30;61.15;97829.25;7377421;26;20228;-83
2024/04/17 02:21:14;;;;;;;2.80;2.60;;;;;;;10.99;61.77;97854.63;7381881;26;20242;-82
2024/04/17 02:24:35;;;;;;;2.90;2.70;;;;;;;11.15;62.15;97851.28;7380770;26;20287;-83
2024/04/17 02:27:58;;;;;;;3.00;2.70;;;;;;;11.28;61.39;97840.25;7379277;26;20747;-83
2024/04/17 02:31:21;;;;;;;3.30;3.00;;;;;;;11.34;62.10;97839.31;7378382;26;20276;-83
2024/04/17 02:34:47;;;;;;;5.23;3.23;;;;;;;11.24;61.89;97839.09;7377858;26;20221;-83
2024/04/17 02:38:10;;;;;;;3.80;3.50;;;;;;;10.88;63.14;97849.22;7378112;26;20239;-83
2024/04/17 02:41:33;;;;;;;4.00;3.60;;;;;;;10.58;64.54;97834.94;7378308;26;20238;-83
2024/04/17 02:44:56;;;;;;;4.80;4.30;;;;;;;10.98;64.33;97852.19;7378796;26;20231;-84
2024/04/17 02:48:19;;;;;;;4.30;3.93;;;;;;;11.21;63.11;97838.75;7376602;26;20721;-83
2024/04/17 02:51:43;;;;;;;5.17;4.40;;;;;;;11.47;62.54;97843.69;7377186;26;20273;-80
2024/04/17 02:55:06;;;;;;;3.60;2.70;;;;;;;10.45;63.29;97845.88;7375177;26;20281;-80
2024/04/17 02:58:30;;;;;;;2.83;2.20;;;;;;;10.19;63.26;97857.81;7375662;26;20265;-80
2024/04/17 03:01:50;;;;;;;2.80;2.10;;;;;;;9.99;62.99;97862.56;7376240;26;20238;-82
2024/04/17 03:05:13;;;;;;;2.37;2.27;;;;;;;10.24;62.24;97857.97;7376837;26;20272;-82
2024/04/17 03:08:39;;;;;;;2.27;2.17;;;;;;;10.74;61.55;97874.72;7376217;26;20280;-83
2024/04/17 03:12:00;;;;;;;3.30;2.20;;;;;;;10.87;60.91;97880.72;7375252;26;20296;-83
2024/04/17 03:15:23;;;;;;;2.80;2.60;;;;;;;10.89;61.01;97894.00;7376816;26;20218;-83
2024/04/17 03:18:46;;;;;;;2.50;2.30;;;;;;;10.98;60.31;97885.34;7366417;26;20253;-83
2024/04/17 03:22:07;;;;;;;2.93;2.63;;;;;;;11.11;59.84;97890.53;7376928;26;20628;-83
2024/04/17 03:25:33;;;;;;;3.10;2.90;;;;;;;10.96;60.31;97889.31;7377470;26;20732;-84
2024/04/17 03:28:56;;;;;;;3.43;3.17;;;;;;;10.99;60.09;97889.69;7376682;26;20817;-83
2024/04/17 03:32:16;;;;;;;3.03;2.80;;;;;;;11.31;59.81;97874.88;7376456;26;20235;-83
2024/04/17 03:35:40;;;;;;;3.40;3.10;;;;;;;11.07;59.44;97886.69;7376227;26;20284;-82
2024/04/17 03:39:03;;;;;;;3.10;2.90;;;;;;;11.55;58.63;97891.91;7375889;26;20270;-84
2024/04/17 03:42:28;;;;;;;3.00;2.80;;;;;;;11.64;58.91;97894.06;7376030;26;20280;-83
2024/04/17 03:45:52;;;;;;;2.97;2.77;;;;;;;11.70;58.26;97893.13;7376771;26;20597;-81
2024/04/17 03:49:15;;;;;;;3.27;2.97;;;;;;;11.34;59.49;97900.59;7376354;26;20844;-81
2024/04/17 03:52:35;;;;;;;4.10;3.67;;;;;;;11.29;59.39;97900.44;7376772;26;20234;-82
2024/04/17 03:55:58;;;;;;;3.70;3.40;;;;;;;11.16;60.04;97901.47;7376768;26;20236;-81
2024/04/17 03:59:24;;;;;;;4.20;3.73;;;;;;;11.19;60.60;97911.81;7376119;26;20498;-82
2024/04/17 04:02:47;;;;;;;4.73;4.33;;;;;;;11.15;61.04;97907.91;7377539;26;20271;-81
2024/04/17 04:06:11;;;;;;;4.50;4.20;;;;;;;11.29;60.56;97897.75;7377311;26;20228;-82
2024/04/17 04:09:34;;;;;;;4.60;4.23;;;;;;;11.35;60.37;97905.75;7375414;26;20737;-81
2024/04/17 04:12:54;;;;;;;4.17;3.87;;;;;;;11.32;60.22;97891.88;7376327;26;20788;-81
2024/04/17 04:16:20;;;;;;;4.63;4.23;;;;;;;11.28;59.37;97912.31;7376983;26;20259;-83
2024/04/17 04:19:41;;;;;;;4.67;4.27;;;;;;;10.44;60.47;97911.59;7376009;26;20288;-82
2024/04/17 04:23:04;;;;;;;4.90;4.23;;;;;;;10.79;60.79;97908.03;7378038;26;20242;-81
2024/04/17 04:26:27;;;;;;;4.63;4.23;;;;;;;11.27;59.33;97916.06;7381133;26;20273;-81
2024/04/17 04:29:48;;;;;;;4.40;4.00;;;;;;;11.15;59.55;97916.00;7379637;26;20240;-82
2024/04/17 04:33:13;;;;;;;5.47;4.97;;;;;;;11.12;60.57;97924.59;7380262;26;20242;-82
2024/04/17 04:36:37;;;;;;;5.13;4.73;;;;;;;11.51;59.99;97933.94;7381289;26;20219;-82
2024/04/17 04:39:57;;;;;;;4.97;4.57;;;;;;;11.65;58.88;97911.09;7381275;26;20561;-82
2024/04/17 04:43:20;;;;;;;4.73;4.10;;;;;;;11.77;58.13;97923.56;7380826;26;20880;-82
2024/04/17 04:46:41;;;;;;;5.63;5.03;;;;;;;11.69;58.22;97920.38;7382305;26;20223;-81
2024/04/17 04:50:07;;;;;;;4.70;4.30;;;;;;;11.20;58.10;97934.19;7381713;26;20288;-82
2024/04/17 04:53:30;;;;;;;5.40;4.90;;;;;;;11.66;58.46;97945.97;7381699;26;20339;-82
2024/04/17 04:56:53;;;;;;;8.83;5.73;;;;;;;11.83;58.37;97938.84;7381398;26;20266;-82
2024/04/17 05:00:17;;;;;;;4.73;4.20;;;;;;;12.01;57.80;97943.28;7381268;26;20231;-82
2024/04/17 05:03:37;;;;;;;5.30;4.80;;;;;;;11.97;58.71;97944.81;7381249;26;20265;-80
2024/04/17 05:07:03;;;;;;;3.70;3.40;;;;;;;12.05;57.27;97942.56;7354959;26;20246;-82
2024/04/17 05:10:26;;;;;;;4.70;3.93;;;;;;;11.84;58.64;97931.53;7348458;26;20733;-83
2024/04/17 05:13:49;;;;;;;4.70;4.30;;;;;;;11.78;57.77;97932.47;7357434;26;20238;-84
2024/04/17 05:17:10;;;;;;;5.33;4.93;;;;;;;11.94;57.87;97948.00;7352287;26;20744;-82
2024/04/17 05:20:34;;;;;;;4.80;4.40;;;;;;;12.06;57.68;97957.75;7355118;26;20393;-82
2024/04/17 05:24:00;;;;;;;5.13;4.20;;;;;;;12.06;56.93;97927.19;7355982;26;20238;-83
2024/04/17 05:27:20;;;;;;;6.00;4.47;;;;;;;12.06;57.28;97946.13;7352258;26;20281;-83
2024/04/17 05:30:43;;;;;;;5.77;4.53;;;;;;;12.19;56.43;97956.69;7360405;26;20535;-83
2024/04/17 05:34:06;;;;;;;4.80;4.40;;;;;;;11.84;57.32;97945.03;7379378;26;20272;-82
2024/04/17 05:37:30;;;;;;;4.47;4.07;;;;;;;11.91;57.80;97937.63;7379390;26;20231;-83
2024/04/17 05:40:56;;;;;;;4.70;4.40;;;;;;;11.90;57.38;97936.00;7380562;26;20242;-82
2024/04/17 05:44:19;;;;;;;4.97;4.57;;;;;;;11.99;56.93;97946.22;7384295;26;20227;-83
2024/04/17 05:47:40;;;;;;;4.97;4.50;;;;;;;12.01;57.44;97948.69;7379174;26;20284;-80
2024/04/17 05:51:03;;;;;;;6.13;5.20;;;;;;;12.24;56.81;97952.22;7376648;26;20242;-80
2024/04/17 05:54:26;;;;;;;5.23;4.73;;;;;;;12.01;56.95;97944.13;7376907;26;20238;-80
2024/04/17 05:57:49;;;;;;;5.93;5.33;;;;;;;12.24;56.37;97960.34;7376171;26;20231;-80
2024/04/17 06:01:12;;;;;;;6.10;5.10;;;;;;;12.04;57.74;97951.75;7376555;26;20500;-80
2024/04/17 06:04:37;;;;;;;6.13;5.53;;;;;;;11.65;57.00;97947.03;7376878;26;20788;-79
2024/04/17 06:07:57;;;;;;;6.87;6.20;;;;;;;11.96;58.06;97962.06;7374841;26;20283;-80
2024/04/17 06:11:22;;;;;;;6.97;5.67;;;;;;;12.25;56.92;97961.13;7375706;26;20262;-80
2024/04/17 06:14:48;;;;;;;5.60;5.10;;;;;;;12.03;57.18;97976.31;7377191;26;20269;-80
2024/04/17 06:18:11;;;;;;;6.17;5.40;;;;;;;12.19;57.76;97971.03;7375516;26;20285;-80
2024/04/17 06:21:32;;;;;;;6.63;6.03;;;;;;;12.37;56.73;97984.41;7385552;26;20229;-82
2024/04/17 06:24:55;;;;;;;6.60;5.90;;;;;;;11.85;58.00;97981.78;7389810;26;20234;-79
2024/04/17 06:28:18;;;;;;;6.73;6.03;;;;;;;11.56;59.19;97996.16;7376814;26;20290;-83
2024/04/17 06:31:44;;;;;;;7.80;6.50;;;;;;;11.50;60.57;97995.19;7378090;26;20621;-83
2024/04/17 06:35:05;;;;;;;7.27;6.53;;;;;;;12.06;58.21;97994.75;7376786;26;20288;-81
2024/04/17 06:38:28;;;;;;;7.50;6.73;;;;;;;12.10;57.90;97982.41;7374400;26;20278;-83
2024/04/17 06:41:51;;;;;;;8.03;6.90;;;;;;;11.90;58.43;97984.63;7376530;26;20233;-84
2024/04/17 06:45:12;;;;;;;7.43;6.70;;;;;;;11.82;58.75;97993.06;7374620;26;20234;-84
2024/04/17 06:48:38;;;;;;;6.27;5.67;;;;;;;11.66;58.44;97985.63;7373599;26;20230;-85
2024/04/17 06:51:59;;;;;;;7.33;6.10;;;;;;;10.61;60.37;98004.25;7375057;26;20283;-84
2024/04/17 06:55:22;;;;;;;7.03;6.33;;;;;;;10.99;60.76;98002.97;7374785;26;20592;-83
2024/04/17 06:58:42;;;;;;;6.57;5.67;;;;;;;10.95;60.10;97999.09;7373546;26;20600;-83
2024/04/17 07:02:06;;;;;;;5.20;4.70;;;;;;;11.13;59.09;98003.63;7375357;26;20768;-84
2024/04/17 07:05:32;;;;;;;5.93;4.93;;;;;;;10.83;60.29;97989.28;7374796;26;20748;-82
2024/04/17 07:08:52;;;;;;;5.63;5.03;;;;;;;11.57;58.74;98001.31;7369662;26;20238;-84
2024/04/17 07:12:16;;;;;;;5.40;4.97;;;;;;;11.30;58.08;98010.88;7374805;26;20268;-84
2024/04/17 07:15:39;;;;;;;5.50;5.00;;;;;;;11.33;58.94;98006.88;7375532;26;20477;-83
2024/04/17 07:19:03;;;;;;;6.17;5.60;;;;;;;11.54;59.11;98018.00;7335270;26;20247;-82
2024/04/17 07:22:28;;;;;;;5.50;5.00;;;;;;;11.66;58.46;98005.38;7347963;26;20247;-83
2024/04/17 07:25:52;;;;;;;4.87;4.47;;;;;;;12.15;56.69;98012.28;7390805;26;20246;-84
2024/04/17 07:29:15;;;;;;;5.00;4.60;;;;;;;11.88;57.67;98019.16;7379687;26;20237;-84
2024/04/17 07:32:38;;;;;;;5.37;4.87;;;;;;;11.75;58.90;98011.25;7373686;26;20233;-84
2024/04/17 07:36:02;;;;;;;5.03;4.50;;;;;;;12.29;57.47;98013.66;7370353;26;20284;-83
2024/04/17 07:39:28;;;;;;;5.53;4.70;;;;;;;12.29;56.40;98013.66;7377475;26;20234;-83
2024/04/17 07:42:51;;;;;;;5.93;5.33;;;;;;;12.06;58.15;98008.25;7377883;26;20235;-84
2024/04/17 07:46:14;;;;;;;5.57;4.97;;;;;;;12.41;58.31;98011.78;7331291;27;20235;-84
2024/04/17 07:49:37;;;;;;;5.97;5.37;;;;;;;12.43;57.26;98007.78;7337219;26;20313;-82
2024/04/17 07:52:58;;;;;;;7.00;6.30;;;;;;;12.32;58.27;98026.69;7378382;26;20230;-84
2024/04/17 07:56:24;;;;;;;7.30;6.60;;;;;;;12.02;58.68;98004.38;7378410;26;20273;-84
2024/04/17 07:59:44;;;;;;;7.63;6.70;;;;;;;12.14;59.34;98016.00;7381341;26;20227;-83
2024/04/17 08:03:08;;;;;;;5.93;5.33;;;;;;;12.00;58.39;98011.88;7375410;26;20274;-83
2024/04/17 08:06:28;;;;;;;5.80;5.30;;;;;;;12.15;58.53;97996.84;7376314;26;20552;-83
2024/04/17 08:09:51;;;;;;;6.83;6.10;;;;;;;11.85;60.52;98019.59;7375233;26;20770;-84
2024/04/17 08:13:17;;;;;;;6.87;5.60;;;;;;;11.76;60.22;98016.41;7375421;26;20269;-82
2024/04/17 08:16:38;;;;;;;6.80;6.10;;;;;;;11.37;60.65;98008.88;7376704;26;20284;-83
2024/04/17 08:20:01;;;;;;;7.03;6.33;;;;;;;11.86;60.65;98023.97;7373220;26;20235;-82
2024/04/17 08:23:21;;;;;;;7.83;7.00;;;;;;;11.91;60.53;98019.50;7373572;26;20226;-83
2024/04/17 08:26:45;;;;;;;6.43;5.83;;;;;;;11.10;60.15;98028.38;7374831;26;20222;-83
2024/04/17 08:30:12;;;;;;;7.03;6.30;;;;;;;11.42;59.84;98024.38;7367561;26;20251;-82
2024/04/17 08:33:35;;;;;;;9.33;7.50;;;;;;;11.94;59.64;98023.63;7373087;26;20284;-83
2024/04/17 08:36:55;;;;;;;8.90;7.27;;;;;;;12.08;60.36;98014.22;7373098;26;20226;-83
2024/04/17 08:40:19;;;;;;;9.57;7.97;;;;;;;11.60;60.26;98043.25;7372711;26;20626;-83
2024/04/17 08:43:40;;;;;;;7.27;6.57;;;;;;;11.63;61.26;98040.91;7373002;26;20773;-83
2024/04/17 08:47:06;;;;;;;7.90;7.07;;;;;;;11.83;60.66;98033.34;7355747;26;20239;-83
2024/04/17 08:50:32;;;;;;;8.60;7.40;;;;;;;12.10;60.24;98039.16;7367373;26;21037;-83
2024/04/17 08:53:57;;;;;;;7.83;7.13;;;;;;;11.89;61.75;98043.25;7373117;26;20356;-82
2024/04/17 08:57:18;;;;;;;9.10;7.40;;;;;;;12.33;61.26;98028.38;7371570;26;20318;-81
2024/04/17 09:00:41;;;;;;;8.17;6.37;;;;;;;12.11;58.93;98043.50;7373234;26;20262;-84
2024/04/17 09:04:09;;;;;;;8.83;7.63;;;;;;;12.53;59.70;98032.38;7373085;26;20235;-81
2024/04/17 09:07:32;;;;;;;8.40;7.57;;;;;;;12.79;59.46;98026.44;7372732;26;20266;-84
2024/04/17 09:10:54;;;;;;;9.27;8.13;;;;;;;12.75;59.33;98022.56;7370033;26;20356;-83
2024/04/17 09:14:19;;;;;;;9.40;8.43;;;;;;;12.70;59.04;98027.84;7353543;26;20235;-83
2024/04/17 09:17:40;;;;;;;12.83;9.67;;;;;;;12.42;61.04;98038.59;7356150;26;20236;-83
2024/04/17 09:21:06;;;;;;;9.77;7.80;;;;;;;11.91;58.13;98035.72;7344814;26;20281;-82
2024/04/17 09:24:27;;;;;;;8.87;7.83;;;;;;;11.51;59.31;98044.63;7344169;26;20632;-81
2024/04/17 09:27:50;;;;;;;9.40;7.10;;;;;;;11.19;59.45;98060.19;7357983;26;20806;-81
2024/04/17 09:31:13;;;;;;;9.33;7.50;;;;;;;11.14;60.32;98061.91;7348492;26;22103;-81
2024/04/17 09:34:37;;;;;;;7.27;6.57;;;;;;;11.29;60.85;98065.88;7363876;26;20269;-80
2024/04/17 09:38:01;;;;;;;5.93;5.43;;;;;;;11.05;60.76;98056.00;7372663;26;20365;-80
2024/04/17 09:41:25;;;;;;;7.07;6.37;;;;;;;11.12;60.79;98067.56;7374590;26;20250;-81
2024/04/17 09:44:49;;;;;;;7.07;5.77;;;;;;;11.19;60.80;98070.16;7352189;26;20272;-82
2024/04/17 09:48:10;;;;;;;6.63;5.97;;;;;;;11.62;59.98;98065.47;7365589;26;20285;-81
2024/04/17 09:51:34;;;;;;;5.30;4.90;;;;;;;10.98;60.28;98078.72;7380019;26;20294;-81
2024/04/17 09:55:03;;;;;;;5.33;4.83;;;;;;;11.15;59.89;98083.28;7351032;26;20244;-81
2024/04/17 09:58:32;;;;;;;6.40;5.53;;;;;;;10.98;60.61;98090.31;7333244;27;20227;-84
2024/04/17 10:01:56;;;;;;;5.00;4.50;;;;;;;11.65;58.24;98090.13;7333600;26;20234;-81
2024/04/17 10:05:17;;;;;;;4.07;3.77;;;;;;;11.56;57.95;98090.66;7334383;27;20301;-80
2024/04/17 10:08:40;;;;;;;8.43;7.53;;;;;;;11.59;58.03;98093.75;7364733;26;20232;-82
2024/04/17 10:12:07;;;;;;;8.57;7.13;;;;;;;11.53;57.89;98074.91;7336589;26;20239;-82
2024/04/17 10:15:30;;;;;;;16.17;8.80;;;;;;;11.80;58.92;98100.53;7336106;27;20269;-81
2024/04/17 10:18:51;;;;;;;74.13;40.10;;;;;;;11.79;57.98;98055.63;7334213;27;20263;-85
2024/04/17 10:22:18;;;;;;;8.53;5.53;;;;;;;12.20;56.60;98090.72;7338872;26;20247;-81
2024/04/17 10:25:48;;;;;;;6.40;5.77;;;;;;;11.62;58.79;98081.66;7344191;26;20268;-80
2024/04/17 10:29:19;;;;;;;5.97;5.37;;;;;;;11.39;58.91;98095.03;7375424;26;20225;-80
2024/04/17 10:32:41;;;;;;;8.53;6.50;;;;;;;11.61;58.81;98093.50;7385436;26;20780;-81
2024/04/17 10:36:05;;;;;;;7.80;6.07;;;;;;;12.29;58.77;98090.19;7376453;26;20776;-83
2024/04/17 10:39:26;;;;;;;8.93;8.03;;;;;;;11.65;60.50;98084.72;7364370;26;20793;-81
2024/04/17 10:42:50;;;;;;;11.23;10.13;;;;;;;11.86;59.70;98091.50;7362716;26;20231;-83
2024/04/17 10:46:20;;;;;;;13.63;11.40;;;;;;;12.71;59.46;98080.91;7364301;26;21044;-81
2024/04/17 10:49:43;;;;;;;8.47;7.63;;;;;;;13.01;58.32;98073.50;7356311;26;20230;-83
2024/04/17 10:53:04;;;;;;;8.30;7.50;;;;;;;13.58;57.27;98085.22;7370433;26;20238;-85
2024/04/17 10:56:27;;;;;;;8.33;6.77;;;;;;;14.15;55.46;98065.16;7334835;26;20260;-81
2024/04/17 10:59:48;;;;;;;5.63;4.30;;;;;;;11.72;54.95;98074.66;7341533;26;20243;-80
2024/04/17 11:03:15;;;;;;;4.73;4.13;;;;;;;11.42;57.20;98063.00;7376033;26;20708;-80
2024/04/17 11:06:36;;;;;;;5.00;4.60;;;;;;;12.10;56.54;98074.28;7363018;26;20231;-81
2024/04/17 11:09:59;;;;;;;7.47;5.63;;;;;;;11.63;57.37;98077.91;7347018;26;20289;-80
2024/04/17 11:13:23;;;;;;;8.23;5.73;;;;;;;11.48;58.03;98072.06;7370915;26;20590;-80
2024/04/17 11:16:48;;;;;;;6.93;5.73;;;;;;;12.22;57.94;98056.22;7336128;26;20232;-84
2024/04/17 11:20:16;;;;;;;6.67;5.37;;;;;;;13.69;55.12;98036.41;7352501;26;20238;-81
2024/04/17 11:23:41;;;;;;;8.00;4.90;;;;;;;14.51;51.25;98040.28;7375038;26;20334;-80
2024/04/17 11:27:06;;;;;;;6.80;5.03;;;;;;;14.29;53.15;98040.19;7373004;26;20294;-80
2024/04/17 11:30:29;;;;;;;6.87;4.80;;;;;;;14.86;51.75;98054.34;7351333;26;20267;-82
2024/04/17 11:33:53;;;;;;;7.53;4.97;;;;;;;15.23;49.74;98031.75;7375301;26;20264;-81
2024/04/17 11:37:18;;;;;;;4.83;4.43;;;;;;;15.32;49.83;98046.56;7330302;26;20241;-80
2024/04/17 11:40:45;;;;;;;6.73;5.20;;;;;;;14.58;49.90;98033.56;7377090;26;20243;-81
2024/04/17 11:44:06;;;;;;;8.53;5.00;;;;;;;15.22;48.73;98021.16;7376404;26;20617;-81
2024/04/17 11:47:29;;;;;;;9.23;5.67;;;;;;;15.09;50.83;98025.06;7375183;26;21279;-82
2024/04/17 11:50:50;;;;;;;6.50;4.90;;;;;;;15.12;49.50;98016.44;7376021;26;20247;-80
2024/04/17 11:54:15;;;;;;;5.23;4.73;;;;;;;14.31;50.79;98029.09;7375569;26;20270;-82
2024/04/17 11:57:39;;;;;;;7.63;5.60;;;;;;;14.38;51.46;98024.31;7374853;26;20229;-80
2024/04/17 12:01:02;;;;;;;9.87;5.97;;;;;;;14.38;51.58;98029.75;7375523;26;20269;-84
2024/04/17 12:04:27;;;;;;;9.57;5.40;;;;;;;13.82;51.56;98024.44;7366798;26;20646;-83
2024/04/17 12:07:50;;;;;;;9.80;6.00;;;;;;;13.80;52.11;98030.09;7373105;26;20281;-84
2024/04/17 12:11:16;;;;;;;7.10;5.40;;;;;;;14.03;52.30;98029.13;7373492;26;20265;-84
2024/04/17 12:14:37;;;;;;;6.20;4.63;;;;;;;13.91;49.67;98033.81;7373183;26;20227;-81
2024/04/17 12:18:00;;;;;;;7.67;3.90;;;;;;;13.15;51.14;98055.13;7372508;26;20259;-85
2024/04/17 12:21:23;;;;;;;7.23;5.37;;;;;;;13.14;52.79;98045.31;7332675;26;20244;-82
2024/04/17 12:28:28;;;;;;;5.47;3.87;;;;;;;12.86;50.52;98035.25;7328995;27;20220;-81
2024/04/17 12:31:51;;;;;;;4.00;3.50;;;;;;;13.01;48.65;98035.63;7367812;26;20241;-80
2024/04/17 12:35:15;;;;;;;5.67;3.80;;;;;;;13.40;50.18;98018.50;7373290;26;20269;-81
2024/04/17 12:38:38;;;;;;;7.60;4.93;;;;;;;13.77;48.90;98040.59;7371661;26;20293;-80
2024/04/17 12:42:01;;;;;;;8.00;5.03;;;;;;;13.61;50.39;98036.81;7372358;26;20246;-80
2024/04/17 12:45:27;;;;;;;7.73;4.67;;;;;;;13.78;50.33;98039.53;7378515;26;20283;-80
2024/04/17 12:48:50;;;;;;;6.20;4.40;;;;;;;13.89;49.86;98012.41;7379800;26;20226;-81
2024/04/17 12:52:13;;;;;;;9.53;5.23;;;;;;;14.03;49.05;98012.88;7379034;26;20264;-81
2024/04/17 12:55:37;;;;;;;7.70;4.20;;;;;;;14.61;48.42;98018.69;7379395;26;20709;-82
2024/04/17 12:59:00;;;;;;;6.80;3.70;;;;;;;14.51;47.14;98008.53;7377524;26;20817;-80
2024/04/17 13:02:25;;;;;;;3.97;3.00;;;;;;;14.97;45.14;97996.38;7377604;26;20241;-81
2024/04/17 13:05:49;;;;;;;3.70;2.87;;;;;;;15.44;43.30;98005.66;7368271;26;20233;-81
2024/04/17 13:09:13;;;;;;;2.87;2.50;;;;;;;15.17;41.78;97991.22;7346865;26;21061;-82
2024/04/17 13:12:36;;;;;;;3.23;2.90;;;;;;;14.80;41.09;97995.66;7374733;26;20253;-80
2024/04/17 13:15:59;;;;;;;7.73;4.63;;;;;;;15.20;42.12;97993.41;7377534;26;20713;-80
2024/04/17 13:19:29;;;;;;;2.40;2.20;;;;;;;15.45;38.86;97999.19;7376496;26;20244;-80
2024/04/17 13:22:53;;;;;;;2.60;2.10;;;;;;;15.20;37.07;97996.97;7376987;26;20228;-80
2024/04/17 13:26:16;;;;;;;2.77;1.70;;;;;;;14.65;35.95;97993.56;7376737;26;20230;-80
2024/04/17 13:29:36;;;;;;;2.07;1.87;;;;;;;14.78;37.93;97971.47;7334579;26;20241;-80
2024/04/17 13:33:01;;;;;;;3.40;2.30;;;;;;;15.28;38.33;97982.94;7341409;26;20315;-79
2024/04/17 13:36:27;;;;;;;5.07;2.23;;;;;;;15.33;36.30;97990.38;7377232;26;20274;-80
2024/04/17 13:39:50;;;;;;;2.63;2.20;;;;;;;14.87;36.50;97991.66;7376162;26;20235;-81
2024/04/17 13:43:10;;;;;;;3.63;3.13;;;;;;;15.09;36.02;97995.19;7377582;26;20228;-80
2024/04/17 13:46:33;;;;;;;4.63;2.47;;;;;;;15.20;35.83;97979.84;7363592;26;20233;-81
2024/04/17 13:49:54;;;;;;;2.47;2.27;;;;;;;15.18;36.35;97995.56;7329813;26;20826;-80
2024/04/17 13:53:20;;;;;;;12.80;8.83;;;;;;;15.86;36.33;97985.72;7331047;27;20235;-80
2024/04/17 13:56:41;;;;;;;3.87;2.13;;;;;;;14.59;36.52;97983.69;7331788;27;20276;-81
2024/04/17 14:00:05;;;;;;;7.87;4.00;;;;;;;14.88;38.73;97998.75;7333275;26;20244;-81
2024/04/17 14:03:29;;;;;;;11.90;5.63;;;;;;;15.48;38.93;97985.91;7370440;26;20233;-82
2024/04/17 14:06:53;;;;;;;8.03;6.27;;;;;;;15.15;37.26;97993.38;7348678;26;20235;-81
2024/04/17 14:10:19;;;;;;;5.17;3.10;;;;;;;15.61;39.21;97993.66;7339362;26;20297;-80
2024/04/17 14:13:42;;;;;;;3.63;2.70;;;;;;;15.20;38.53;97996.13;7377510;26;20275;-80
2024/04/17 14:17:06;;;;;;;3.40;2.80;;;;;;;15.37;37.86;97991.47;7341560;26;20640;-80
2024/04/17 14:20:29;;;;;;;4.07;2.60;;;;;;;15.40;37.36;97996.41;7355743;26;20246;-81
2024/04/17 14:23:53;;;;;;;3.33;2.60;;;;;;;15.91;35.83;98001.25;7334180;26;20230;-81
2024/04/17 14:27:18;;;;;;;6.20;3.43;;;;;;;15.22;36.44;97992.09;7375965;26;20241;-80
2024/04/17 14:30:41;;;;;;;5.03;2.90;;;;;;;15.53;36.90;97996.00;7378139;26;20243;-80
2024/04/17 14:34:05;;;;;;;5.87;3.27;;;;;;;15.75;36.81;97985.91;7394400;26;20264;-81
2024/04/17 14:37:26;;;;;;;4.27;2.83;;;;;;;16.05;36.51;97984.25;7375108;26;20235;-80
2024/04/17 14:40:59;;;;;;;3.63;2.87;;;;;;;15.97;35.60;97997.50;7340503;26;20281;-80
2024/04/17 14:44:22;;;;;;;3.50;3.20;;;;;;;16.17;34.44;97976.72;7373223;26;20673;-81
2024/04/17 14:47:45;;;;;;;5.50;3.30;;;;;;;16.15;35.21;97972.66;7386387;26;20728;-81
2024/04/17 14:51:07;;;;;;;4.10;2.97;;;;;;;16.84;35.18;97980.47;7377691;26;20292;-81
2024/04/17 14:54:30;;;;;;;6.03;2.97;;;;;;;16.43;35.22;97975.06;7375959;26;20237;-81
2024/04/17 14:57:55;;;;;;;4.20;2.97;;;;;;;16.06;36.58;97979.66;7348959;26;20293;-82
2024/04/17 15:01:21;;;;;;;3.90;2.80;;;;;;;15.78;35.42;97990.81;7347860;26;20368;-80
2024/04/17 15:04:45;;;;;;;3.77;3.17;;;;;;;15.76;34.92;97976.66;7361865;26;20237;-81
2024/04/17 15:08:06;;;;;;;19.13;12.77;;;;;;;15.47;36.08;97986.16;7343197;26;20246;-82
2024/04/17 15:11:30;;;;;;;8.93;5.07;;;;;;;16.14;35.47;97984.59;7352593;26;20247;-82
2024/04/17 15:14:53;;;;;;;30.90;20.80;;;;;;;15.77;36.80;97981.84;7358266;26;20240;-81
2024/04/17 15:18:16;;;;;;;5.47;4.43;;;;;;;15.57;37.50;97986.28;7346066;26;20302;-80
2024/04/17 15:21:39;;;;;;;3.27;2.97;;;;;;;15.53;36.09;97988.69;7358101;26;20301;-83
2024/04/17 15:25:03;;;;;;;6.03;2.77;;;;;;;15.71;37.34;97987.50;7358551;26;20265;-82
2024/04/17 15:28:25;;;;;;;5.47;3.97;;;;;;;15.88;36.83;97982.75;7354553;26;20242;-82
2024/04/17 15:31:48;;;;;;;27.17;19.30;;;;;;;15.71;37.25;97985.59;7355766;26;20289;-82
2024/04/17 15:35:14;;;;;;;4.70;3.50;;;;;;;16.00;36.47;97978.81;7356246;26;20262;-82
2024/04/17 15:38:38;;;;;;;5.70;3.23;;;;;;;16.04;36.59;97973.66;7368070;26;20261;-82
2024/04/17 15:42:01;;;;;;;3.53;2.70;;;;;;;15.87;37.96;97978.41;7355947;26;20240;-83
2024/04/17 15:45:24;;;;;;;3.33;2.90;;;;;;;16.03;36.93;97961.13;7361851;26;20243;-82
2024/04/17 15:48:48;;;;;;;4.37;3.37;;;;;;;15.90;39.21;97984.16;7357810;26;20624;-83
2024/04/17 15:52:14;;;;;;;4.27;3.77;;;;;;;15.09;38.12;98013.38;7348278;26;20286;-82
2024/04/17 15:55:37;;;;;;;6.73;3.30;;;;;;;13.47;40.66;98008.38;7354982;26;20237;-81
2024/04/17 15:59:00;;;;;;;3.97;2.97;;;;;;;12.21;44.47;97978.91;7349427;26;20224;-82
2024/04/17 16:02:26;;;;;;;5.23;2.80;;;;;;;12.54;43.12;97993.44;7344020;26;20240;-81